createdAt,value
2023-02-05T00:01:59.919Z,9.00
2023-02-05T00:04:27.617Z,16.55
2023-02-05T00:06:55.368Z,12.55
2023-02-05T00:09:23.032Z,9.23
2023-02-05T00:11:52.116Z,8.27
2023-02-05T00:14:19.885Z,17.55
2023-02-05T00:16:48.282Z,18.60
2023-02-05T00:19:16.013Z,20.08
2023-02-05T00:21:44.348Z,9.00
2023-02-05T00:24:12.962Z,47.90
2023-02-05T00:26:41.819Z,22.95
2023-02-05T00:29:10.777Z,8.07
2023-02-05T00:31:38.659Z,7.05
2023-02-05T00:34:06.430Z,20.27
2023-02-05T00:36:34.101Z,20.02
2023-02-05T00:39:01.949Z,16.92
2023-02-05T00:41:29.718Z,7.05
2023-02-05T00:43:57.420Z,16.27
2023-02-05T00:46:26.566Z,14.30
2023-02-05T00:48:54.270Z,7.60
2023-02-05T00:51:21.992Z,6.00
2023-02-05T00:53:49.676Z,6.28
2023-02-05T00:56:17.439Z,6.05
2023-02-05T00:58:47.877Z,6.00
2023-02-05T01:01:15.912Z,6.32
2023-02-05T01:03:45.430Z,5.93
2023-02-05T01:06:13.194Z,5.30
2023-02-05T01:08:40.996Z,6.63
2023-02-05T01:11:11.212Z,5.43
2023-02-05T01:13:38.917Z,6.38
2023-02-05T01:16:06.907Z,6.32
2023-02-05T01:18:35.037Z,6.30
2023-02-05T01:21:04.192Z,7.00
2023-02-05T01:23:31.844Z,6.50
2023-02-05T01:25:59.519Z,7.18
2023-02-05T01:28:27.158Z,7.97
2023-02-05T01:30:55.109Z,13.13
2023-02-05T01:33:22.803Z,24.00
2023-02-05T01:35:51.044Z,12.52
2023-02-05T01:38:20.094Z,14.63
2023-02-05T01:40:47.865Z,18.30
2023-02-05T01:43:16.793Z,12.27
2023-02-05T01:46:07.819Z,6.65
2023-02-05T01:48:39.972Z,6.70
2023-02-05T01:51:12.799Z,7.20
2023-02-05T01:53:42.815Z,6.47
2023-02-05T01:56:13.888Z,6.30
2023-02-05T01:58:46.706Z,7.05
2023-02-05T02:01:14.574Z,7.05
2023-02-05T02:03:42.487Z,8.80
2023-02-05T02:06:10.285Z,9.00
2023-02-05T02:08:37.988Z,17.73
2023-02-05T02:11:09.925Z,21.55
2023-02-05T02:13:40.720Z,9.05
2023-02-05T02:16:09.659Z,6.35
2023-02-05T02:18:38.694Z,7.47
2023-02-05T02:21:38.297Z,5.85
2023-02-05T02:24:31.480Z,6.20
2023-02-05T02:27:12.625Z,6.35
2023-02-05T02:29:50.930Z,7.63
2023-02-05T02:32:25.139Z,21.15
2023-02-05T02:34:58.859Z,6.97
2023-02-05T02:37:34.463Z,5.75
2023-02-05T02:40:09.692Z,7.13
2023-02-05T02:42:43.003Z,6.00
2023-02-05T02:45:14.827Z,6.20
2023-02-05T02:47:48.723Z,6.88
2023-02-05T02:50:22.849Z,6.22
2023-02-05T02:52:53.204Z,6.70
2023-02-05T02:55:23.260Z,9.57
2023-02-05T02:57:52.818Z,19.05
2023-02-05T03:00:25.562Z,14.43
2023-02-05T03:02:58.734Z,10.30
2023-02-05T03:05:30.596Z,7.55
2023-02-05T03:08:02.616Z,7.55
2023-02-05T03:10:38.848Z,7.47
2023-02-05T03:13:06.562Z,7.00
2023-02-05T03:15:35.901Z,7.80
2023-02-05T03:18:03.788Z,6.30
2023-02-05T03:20:37.578Z,7.50
2023-02-05T03:23:05.384Z,7.93
2023-02-05T03:25:33.318Z,9.20
2023-02-05T03:28:01.406Z,7.30
2023-02-05T03:30:35.266Z,7.50
2023-02-05T03:33:17.534Z,7.35
2023-02-05T03:35:49.902Z,7.97
2023-02-05T03:38:40.227Z,7.75
2023-02-05T03:41:19.056Z,7.80
2023-02-05T03:43:54.132Z,7.47
2023-02-05T03:46:30.333Z,7.80
2023-02-05T03:49:13.959Z,7.85
2023-02-05T03:51:49.594Z,7.03
2023-02-05T03:54:23.043Z,8.15
2023-02-05T03:56:58.861Z,8.48
2023-02-05T03:59:28.737Z,7.10
2023-02-05T04:01:57.075Z,7.35
2023-02-05T04:04:26.451Z,8.25
2023-02-05T04:06:54.557Z,8.45
2023-02-05T04:09:22.194Z,7.03
2023-02-05T04:11:49.838Z,7.10
2023-02-05T04:14:17.520Z,7.43
2023-02-05T04:16:45.234Z,7.65
2023-02-05T04:19:12.952Z,7.03
2023-02-05T04:21:41.968Z,6.63
2023-02-05T04:24:09.839Z,7.10
2023-02-05T04:26:37.621Z,5.95
2023-02-05T04:29:05.457Z,6.43
2023-02-05T04:31:33.158Z,5.93
2023-02-05T04:34:00.871Z,6.30
2023-02-05T04:36:28.520Z,5.75
2023-02-05T04:38:57.494Z,6.50
2023-02-05T04:41:25.191Z,6.80
2023-02-05T04:43:52.831Z,6.13
2023-02-05T04:46:20.564Z,6.82
2023-02-05T04:48:48.252Z,6.40
2023-02-05T04:51:17.239Z,6.80
2023-02-05T04:53:44.925Z,7.13
2023-02-05T04:56:16.389Z,6.40
2023-02-05T04:58:45.062Z,5.65
2023-02-05T05:01:14.395Z,5.95
2023-02-05T05:03:42.556Z,6.65
2023-02-05T05:06:10.970Z,7.55
2023-02-05T05:08:39.080Z,6.47
2023-02-05T05:11:08.066Z,5.93
2023-02-05T05:13:38.082Z,5.30
2023-02-05T05:16:07.070Z,7.25
2023-02-05T05:18:35.648Z,5.40
2023-02-05T05:21:04.501Z,6.53
2023-02-05T05:23:32.718Z,5.28
2023-02-05T05:26:00.385Z,5.95
2023-02-05T05:28:28.263Z,6.80
2023-02-05T05:30:57.255Z,6.00
2023-02-05T05:33:24.888Z,5.45
2023-02-05T05:35:52.500Z,6.13
2023-02-05T05:38:20.166Z,6.97
2023-02-05T05:41:05.288Z,5.72
2023-02-05T05:43:48.184Z,6.07
2023-02-05T05:46:22.129Z,6.07
2023-02-05T05:48:51.469Z,6.30
2023-02-05T05:51:19.426Z,6.47
2023-02-05T05:53:47.962Z,7.10
2023-02-05T05:56:16.190Z,6.78
2023-02-05T05:58:44.371Z,5.88
2023-02-05T06:01:13.809Z,6.30
2023-02-05T06:03:42.868Z,5.60
2023-02-05T06:06:13.316Z,6.85
2023-02-05T06:08:41.165Z,5.88
2023-02-05T06:11:08.817Z,7.85
2023-02-05T06:13:36.533Z,5.40
2023-02-05T06:16:04.514Z,6.47
2023-02-05T06:18:32.186Z,5.68
2023-02-05T06:21:02.140Z,5.95
2023-02-05T06:23:29.800Z,6.03
2023-02-05T06:25:57.490Z,5.20
2023-02-05T06:28:25.244Z,5.72
2023-02-05T06:30:53.140Z,5.90
2023-02-05T06:33:20.980Z,6.55
2023-02-05T06:35:48.637Z,6.38
2023-02-05T06:38:17.643Z,6.70
2023-02-05T06:40:45.575Z,5.40
2023-02-05T06:43:13.204Z,6.13
2023-02-05T06:45:40.910Z,6.80
2023-02-05T06:48:08.603Z,7.07
2023-02-05T06:50:36.277Z,6.13
2023-02-05T06:53:03.930Z,6.47
2023-02-05T06:55:33.217Z,6.80
2023-02-05T06:58:01.157Z,7.00
2023-02-05T07:00:28.812Z,8.38
2023-02-05T07:02:56.855Z,6.93
2023-02-05T07:05:24.552Z,6.85
2023-02-05T07:07:52.227Z,7.25
2023-02-05T07:10:20.136Z,6.45
2023-02-05T07:12:49.298Z,6.85
2023-02-05T07:15:17.002Z,6.75
2023-02-05T07:17:44.930Z,7.03
2023-02-05T07:20:12.856Z,6.97
2023-02-05T07:22:40.624Z,6.90
2023-02-05T07:25:09.118Z,6.55
2023-02-05T07:27:36.772Z,6.30
2023-02-05T07:30:07.278Z,6.80
2023-02-05T07:32:35.031Z,6.20
2023-02-05T07:35:02.704Z,7.50
2023-02-05T07:37:30.599Z,8.07
2023-02-05T07:39:58.287Z,6.80
2023-02-05T07:42:25.960Z,6.88
2023-02-05T07:44:53.606Z,6.93
2023-02-05T07:47:23.292Z,6.95
2023-02-05T07:49:50.997Z,6.57
2023-02-05T07:52:18.759Z,7.65
2023-02-05T07:54:46.373Z,6.38
2023-02-05T07:57:14.071Z,6.43
2023-02-05T07:59:41.717Z,6.80
2023-02-05T08:02:10.935Z,6.63
2023-02-05T08:04:40.184Z,6.45
2023-02-05T08:07:07.868Z,6.22
2023-02-05T08:09:36.972Z,7.75
2023-02-05T08:12:05.133Z,8.30
2023-02-05T08:14:32.962Z,7.00
2023-02-05T08:17:00.618Z,6.22
2023-02-05T08:19:28.637Z,6.90
2023-02-05T08:21:57.628Z,6.40
2023-02-05T08:24:25.415Z,7.75
2023-02-05T08:26:53.144Z,7.70
2023-02-05T08:29:20.909Z,7.15
2023-02-05T08:31:48.592Z,8.07
2023-02-05T08:34:18.283Z,7.22
2023-02-05T08:36:47.568Z,7.28
2023-02-05T08:39:16.606Z,7.15
2023-02-05T08:41:44.441Z,6.60
2023-02-05T08:44:12.209Z,7.03
2023-02-05T08:46:49.887Z,7.35
2023-02-05T08:49:18.784Z,7.30
2023-02-05T08:51:46.590Z,7.40
2023-02-05T08:54:16.101Z,7.30
2023-02-05T08:56:45.897Z,7.30
2023-02-05T08:59:13.769Z,6.35
2023-02-05T09:01:45.544Z,6.57
2023-02-05T09:04:15.170Z,9.25
2023-02-05T09:09:20.969Z,7.47
2023-02-05T09:11:49.511Z,6.00
2023-02-05T09:14:17.462Z,6.90
2023-02-05T09:16:45.310Z,7.35
2023-02-05T09:19:12.954Z,6.85
2023-02-05T09:21:41.966Z,8.65
2023-02-05T09:24:09.788Z,6.97
2023-02-05T09:26:38.871Z,8.32
2023-02-05T09:29:06.571Z,7.32
2023-02-05T09:31:34.386Z,8.00
2023-02-05T09:34:03.186Z,7.88
2023-02-05T09:36:30.902Z,8.00
2023-02-05T09:39:13.027Z,7.68
2023-02-05T09:41:52.243Z,7.10
2023-02-05T09:44:30.959Z,8.40
2023-02-05T09:47:06.715Z,7.30
2023-02-05T09:49:39.645Z,7.40
2023-02-05T09:52:18.675Z,6.20
2023-02-05T09:54:52.079Z,7.53
2023-02-05T09:57:33.117Z,6.10
2023-02-05T10:00:01.037Z,8.18
2023-02-05T10:02:36.226Z,7.07
2023-02-05T10:05:07.076Z,9.05
2023-02-05T10:07:44.606Z,7.10
2023-02-05T10:10:26.013Z,8.45
2023-02-05T10:13:19.727Z,7.88
2023-02-05T10:16:02.249Z,7.38
2023-02-05T10:18:40.638Z,6.38
2023-02-05T10:21:20.643Z,6.50
2023-02-05T10:24:02.751Z,6.95
2023-02-05T10:26:39.606Z,7.07
2023-02-05T10:29:26.795Z,7.30
2023-02-05T10:32:06.696Z,6.93
2023-02-05T10:34:50.648Z,6.85
2023-02-05T10:37:20.561Z,7.05
2023-02-05T10:39:49.513Z,7.10
2023-02-05T10:42:29.892Z,6.60
2023-02-05T10:45:07.580Z,7.00
2023-02-05T10:47:49.408Z,7.93
2023-02-05T10:50:26.519Z,6.80
2023-02-05T10:52:54.300Z,7.10
2023-02-05T10:55:22.168Z,6.55
2023-02-05T10:57:50.566Z,7.30
2023-02-05T11:00:21.971Z,6.85
2023-02-05T11:02:52.662Z,8.57
2023-02-05T11:05:30.852Z,7.78
2023-02-05T11:07:59.431Z,8.00
2023-02-05T11:10:30.458Z,7.20
2023-02-05T11:13:03.161Z,6.60
2023-02-05T11:15:34.739Z,7.38
2023-02-05T11:18:05.140Z,6.90
2023-02-05T11:20:35.111Z,7.32
2023-02-05T11:23:16.784Z,6.53
2023-02-05T11:25:52.788Z,5.72
2023-02-05T11:28:27.759Z,6.63
2023-02-05T11:30:58.875Z,6.93
2023-02-05T11:33:31.196Z,7.20
2023-02-05T11:36:02.854Z,7.63
2023-02-05T11:38:39.959Z,6.05
2023-02-05T11:41:09.607Z,7.45
2023-02-05T11:43:39.369Z,6.80
2023-02-05T11:46:11.746Z,5.85
2023-02-05T11:48:43.463Z,6.53
2023-02-05T11:51:14.051Z,6.32
2023-02-05T11:53:51.126Z,6.45
2023-02-05T11:56:32.481Z,5.72
2023-02-05T11:59:01.912Z,7.50
2023-02-05T12:01:36.119Z,6.38
2023-02-05T12:04:15.727Z,6.15
2023-02-05T12:06:47.985Z,6.43
2023-02-05T12:09:21.869Z,6.20
2023-02-05T12:12:07.674Z,6.38
2023-02-05T12:14:43.498Z,6.25
2023-02-05T12:17:28.930Z,7.40
2023-02-05T12:20:01.743Z,7.15
2023-02-05T12:22:50.716Z,6.78
2023-02-05T12:25:25.789Z,6.72
2023-02-05T12:28:12.054Z,7.88
2023-02-05T12:30:52.962Z,7.15
2023-02-05T12:33:53.458Z,8.63
2023-02-05T12:36:46.804Z,7.13
2023-02-05T12:39:30.158Z,7.28
2023-02-05T12:42:09.339Z,7.28
2023-02-05T12:44:50.456Z,7.05
2023-02-05T12:47:35.694Z,8.85
2023-02-05T12:50:16.414Z,5.35
2023-02-05T12:53:02.426Z,4.75
2023-02-05T12:55:43.402Z,5.60
2023-02-05T12:58:14.394Z,9.55
2023-02-05T13:00:49.448Z,10.02
2023-02-05T13:03:26.375Z,12.27
2023-02-05T13:05:58.285Z,12.35
2023-02-05T13:08:39.032Z,11.68
2023-02-05T13:11:14.360Z,10.15
2023-02-05T13:13:51.707Z,11.68
2023-02-05T13:16:22.432Z,8.63
2023-02-05T13:18:58.931Z,8.25
2023-02-05T13:21:45.168Z,9.65
2023-02-05T13:24:44.536Z,8.07
2023-02-05T13:27:40.473Z,7.60
2023-02-05T13:30:14.578Z,7.20
2023-02-05T13:32:46.720Z,6.85
2023-02-05T13:35:15.818Z,7.80
2023-02-05T13:38:10.292Z,8.45
2023-02-05T13:41:21.451Z,5.80
2023-02-05T13:44:07.172Z,5.30
2023-02-05T13:46:53.355Z,4.75
2023-02-05T13:49:49.420Z,3.97
2023-02-05T13:52:36.684Z,4.10
2023-02-05T13:55:39.725Z,3.10
2023-02-05T13:58:20.381Z,4.40
2023-02-05T14:00:57.456Z,4.10
2023-02-05T14:03:35.105Z,3.40
2023-02-05T14:06:21.663Z,3.22
2023-02-05T14:08:50.508Z,2.45
2023-02-05T14:11:20.161Z,3.08
2023-02-05T14:14:25.800Z,3.95
2023-02-05T14:16:55.028Z,3.13
2023-02-05T14:19:26.504Z,2.80
2023-02-05T14:22:03.838Z,2.78
2023-02-05T14:24:50.835Z,2.38
2023-02-05T14:27:49.177Z,3.25
2023-02-05T14:30:48.664Z,3.53
2023-02-05T14:33:35.401Z,3.15
2023-02-05T14:36:34.140Z,3.97
2023-02-05T14:39:18.716Z,2.70
2023-02-05T14:41:51.445Z,3.03
2023-02-05T14:44:27.226Z,3.22
2023-02-05T14:47:10.235Z,2.70
2023-02-05T14:49:42.878Z,3.17
2023-02-05T14:52:28.385Z,4.20
2023-02-05T14:55:00.990Z,3.03
2023-02-05T14:57:38.019Z,3.33
2023-02-05T15:00:08.823Z,3.60
2023-02-05T15:03:10.154Z,3.95
2023-02-05T15:05:44.293Z,2.60
2023-02-05T15:08:16.750Z,3.00
2023-02-05T15:10:49.852Z,3.10
2023-02-05T15:13:18.834Z,3.10
2023-02-05T15:16:21.648Z,3.33
2023-02-05T15:18:52.068Z,3.25
2023-02-05T15:21:26.219Z,3.83
2023-02-05T15:24:00.186Z,3.55
2023-02-05T15:26:37.265Z,3.15
2023-02-05T15:29:08.467Z,3.35
2023-02-05T15:31:43.033Z,3.38
2023-02-05T15:34:29.520Z,4.20
2023-02-05T15:37:04.536Z,3.58
2023-02-05T15:39:48.533Z,3.35
2023-02-05T15:42:20.245Z,3.72
2023-02-05T15:44:48.147Z,3.90
2023-02-05T15:47:21.867Z,3.67
2023-02-05T15:49:52.709Z,3.92
2023-02-05T15:52:24.127Z,3.95
2023-02-05T15:54:54.595Z,3.60
2023-02-05T15:57:24.872Z,2.95
2023-02-05T15:59:54.267Z,3.67
2023-02-05T16:02:24.036Z,3.33
2023-02-05T16:04:57.433Z,3.00
2023-02-05T16:07:28.737Z,3.83
2023-02-05T16:09:58.949Z,3.40
2023-02-05T16:12:26.930Z,4.00
2023-02-05T16:15:02.987Z,4.07
2023-02-05T16:17:39.208Z,3.95
2023-02-05T16:20:21.928Z,4.38
2023-02-05T16:22:55.564Z,5.03
2023-02-05T16:25:43.761Z,4.53
2023-02-05T16:28:18.136Z,4.30
2023-02-05T16:30:47.689Z,4.55
2023-02-05T16:33:26.650Z,4.43
2023-02-05T16:35:55.522Z,4.93
2023-02-05T16:38:24.852Z,4.15
2023-02-05T16:40:56.093Z,4.47
2023-02-05T16:43:32.287Z,4.40
2023-02-05T16:46:22.450Z,5.10
2023-02-05T16:48:52.185Z,4.70
2023-02-05T16:51:55.925Z,4.40
2023-02-05T16:54:33.464Z,4.57
2023-02-05T16:57:05.510Z,5.25
2023-02-05T16:59:37.017Z,4.95
2023-02-05T17:02:05.381Z,5.15
2023-02-05T17:04:35.241Z,4.80
2023-02-05T17:07:06.942Z,5.00
2023-02-05T17:09:39.159Z,6.05
2023-02-05T17:12:40.856Z,5.80
2023-02-05T17:15:36.955Z,5.70
2023-02-05T17:18:20.607Z,5.55
2023-02-05T17:20:48.580Z,5.50
2023-02-05T17:23:17.967Z,5.10
2023-02-05T17:25:55.072Z,5.85
2023-02-05T17:28:25.941Z,5.72
2023-02-05T17:30:55.093Z,6.18
2023-02-05T17:33:25.285Z,5.82
2023-02-05T17:35:53.187Z,6.32
2023-02-05T17:38:23.547Z,6.47
2023-02-05T17:41:13.639Z,6.13
2023-02-05T17:43:42.537Z,7.15
2023-02-05T17:46:14.170Z,6.90
2023-02-05T17:48:44.500Z,7.38
2023-02-05T17:51:19.305Z,7.97
2023-02-05T17:53:47.078Z,7.63
2023-02-05T17:56:16.120Z,7.45
2023-02-05T17:58:44.010Z,9.25
2023-02-05T18:01:12.115Z,8.75
2023-02-05T18:03:40.229Z,9.57
2023-02-05T18:06:08.176Z,42.03
2023-02-05T18:08:37.127Z,10.18
2023-02-05T18:11:05.575Z,10.95
2023-02-05T18:13:34.820Z,9.35
2023-02-05T18:16:03.589Z,9.20
2023-02-05T18:18:32.785Z,9.25
2023-02-05T18:21:00.880Z,10.32
2023-02-05T18:23:29.496Z,9.18
2023-02-05T18:25:57.790Z,10.50
2023-02-05T18:28:26.071Z,9.57
2023-02-05T18:30:59.715Z,9.45
2023-02-05T18:33:27.567Z,8.48
2023-02-05T18:35:55.691Z,8.45
2023-02-05T18:38:23.431Z,7.80
2023-02-05T18:40:51.325Z,7.75
2023-02-05T18:43:19.521Z,8.05
2023-02-05T18:45:47.198Z,7.53
2023-02-05T18:48:16.317Z,8.38
2023-02-05T18:50:47.751Z,8.60
2023-02-05T18:53:15.457Z,8.27
2023-02-05T18:55:43.232Z,7.68
2023-02-05T18:58:10.921Z,8.40
2023-02-05T19:00:38.672Z,7.65
2023-02-05T19:03:06.383Z,8.27
2023-02-05T19:05:36.803Z,8.60
2023-02-05T19:08:06.561Z,10.10
2023-02-05T19:10:37.081Z,7.80
2023-02-05T19:13:05.015Z,8.05
2023-02-05T19:15:34.702Z,9.07
2023-02-05T19:18:02.423Z,7.70
2023-02-05T19:20:30.609Z,8.00
2023-02-05T19:22:59.670Z,8.25
2023-02-05T19:25:27.360Z,7.78
2023-02-05T19:27:55.330Z,8.65
2023-02-05T19:30:23.040Z,8.38
2023-02-05T19:32:50.869Z,8.85
2023-02-05T19:35:18.781Z,7.88
2023-02-05T19:37:46.515Z,7.50
2023-02-05T19:40:16.108Z,7.70
2023-02-05T19:42:44.642Z,8.48
2023-02-05T19:45:12.429Z,8.93
2023-02-05T19:47:40.124Z,9.00
2023-02-05T19:50:08.646Z,9.88
2023-02-05T19:52:36.378Z,9.82
2023-02-05T19:55:04.135Z,10.45
2023-02-05T19:57:35.356Z,10.50
2023-02-05T20:00:03.260Z,10.73
2023-02-05T20:02:31.787Z,9.48
2023-02-05T20:04:59.590Z,9.57
2023-02-05T20:07:27.745Z,10.80
2023-02-05T20:09:55.468Z,10.13
2023-02-05T20:12:23.284Z,9.02
2023-02-05T20:14:52.369Z,9.13
2023-02-05T20:17:20.142Z,9.02
2023-02-05T20:19:47.829Z,8.10
2023-02-05T20:22:15.535Z,9.75
2023-02-05T20:24:43.273Z,9.32
2023-02-05T20:27:11.353Z,9.98
2023-02-05T20:29:56.726Z,10.05
2023-02-05T20:32:25.822Z,12.15
2023-02-05T20:34:53.570Z,13.07
2023-02-05T20:37:21.757Z,10.90
2023-02-05T20:39:49.507Z,11.32
2023-02-05T20:42:17.328Z,10.90
2023-02-05T20:44:45.208Z,11.70
2023-02-05T20:47:15.390Z,10.88
2023-02-05T20:49:44.471Z,11.75
2023-02-05T20:52:12.390Z,12.70
2023-02-05T20:54:40.125Z,13.40
2023-02-05T20:57:08.933Z,12.40
2023-02-05T20:59:37.358Z,11.85
2023-02-05T21:02:05.107Z,12.18
2023-02-05T21:04:32.899Z,12.10
2023-02-05T21:09:29.614Z,11.63
2023-02-05T21:11:57.378Z,12.25
2023-02-05T21:14:25.259Z,13.00
2023-02-05T21:16:53.332Z,12.10
2023-02-05T21:19:21.436Z,12.60
2023-02-05T21:21:50.083Z,11.02
2023-02-05T21:24:17.966Z,12.48
2023-02-05T21:26:50.066Z,12.48
2023-02-05T21:29:19.815Z,11.55
2023-02-05T21:31:49.873Z,12.07
2023-02-05T21:34:21.646Z,12.07
2023-02-05T21:36:49.866Z,11.73
2023-02-05T21:39:20.135Z,12.48
2023-02-05T21:41:50.697Z,12.95
2023-02-05T21:44:18.821Z,11.18
2023-02-05T21:46:46.684Z,12.02
2023-02-05T21:49:14.893Z,13.50
2023-02-05T21:51:43.195Z,11.32
2023-02-05T21:54:12.001Z,12.00
2023-02-05T21:56:41.678Z,12.10
2023-02-05T21:59:11.439Z,12.25
2023-02-05T22:01:39.384Z,12.00
2023-02-05T22:04:10.243Z,12.98
2023-02-05T22:06:38.290Z,12.35
2023-02-05T22:09:07.804Z,12.32
2023-02-05T22:11:35.847Z,14.68
2023-02-05T22:14:03.585Z,15.13
2023-02-05T22:16:34.167Z,16.00
2023-02-05T22:19:03.128Z,14.13
2023-02-05T22:21:32.831Z,14.95
2023-02-05T22:24:02.068Z,16.02
2023-02-05T22:26:31.591Z,14.35
2023-02-05T22:29:00.179Z,14.60
2023-02-05T22:31:29.706Z,16.40
2023-02-05T22:33:58.949Z,15.18
2023-02-05T22:36:28.900Z,14.80
2023-02-05T22:38:57.503Z,15.93
2023-02-05T22:41:26.850Z,14.05
2023-02-05T22:43:56.007Z,14.70
2023-02-05T22:46:25.229Z,15.23
2023-02-05T22:48:54.112Z,16.65
2023-02-05T22:51:26.796Z,14.50
2023-02-05T22:53:54.967Z,15.13
2023-02-05T22:56:23.490Z,17.10
2023-02-05T22:58:52.224Z,17.83
2023-02-05T23:01:21.677Z,15.93
2023-02-05T23:03:50.921Z,16.92
2023-02-05T23:06:21.453Z,16.65
2023-02-05T23:08:53.440Z,19.25
2023-02-05T23:11:22.347Z,17.00
2023-02-05T23:13:50.436Z,17.20
2023-02-05T23:16:21.024Z,19.65
2023-02-05T23:18:49.991Z,19.50
2023-02-05T23:21:20.615Z,18.40
2023-02-05T23:23:49.587Z,17.70
2023-02-05T23:26:21.470Z,18.10
2023-02-05T23:28:49.913Z,18.00
2023-02-05T23:31:18.065Z,19.20
2023-02-05T23:33:45.969Z,18.60
2023-02-05T23:36:14.444Z,21.40
2023-02-05T23:38:42.317Z,18.38
2023-02-05T23:41:10.670Z,18.02
2023-02-05T23:43:40.153Z,18.05
2023-02-05T23:46:08.517Z,20.23
2023-02-05T23:48:36.692Z,19.92
2023-02-05T23:51:04.532Z,20.70
2023-02-05T23:53:32.200Z,18.65
2023-02-05T23:55:59.872Z,18.80
2023-02-05T23:58:27.993Z,20.58
